Pulpca — PHMT — position and weather

sailwx.info

Track history (hours):
 
Tides and Currents Weather Stations Pressure Air Temp Water Temp Dewpoint Dewpoint Depression Visibility Wind Speed Wind Dir Waves Ship Positions

Pulpca

Last reported at 2014-Oct-31 03:21 UTC. Time now 2014-Oct-31 10:52 UTC.
Position N 54°07' E 011°10'.

Length 205 m; draft 7 m.

Type: Ship (hazmat cat A). MMSI: 245097000.

Date/timePositionNaut miles runAvg speedWind from/ knotsBaromVisibWave heightAir tempDewpointWater temp
2014-Oct-31 03:21N 54°07' E 011°10'1417.3
2014-Oct-31 02:33N 54°15' E 011°30'1817.4
2014-Oct-31 01:32N 54°24' E 011°56'1615.6
2014-Oct-31 00:32N 54°35' E 012°15'8316.6
2014-Oct-30 19:33N 55°15' E 014°21'1717.0
2014-Oct-30 18:33N 55°28' E 014°40'1717.1
2014-Oct-30 17:32N 55°37' E 015°07'2417.2
2014-Oct-30 16:07N 55°50' E 015°44'1317.1
2014-Oct-30 15:21N 55°56' E 016°04'31017.2
2014-Oct-29 21:18N 59°37' E 022°51'1013.9
2014-Oct-29 20:33N 59°46' E 023°01'4 1.8
2014-Oct-29 18:27N 59°49' E 022°57'0 0.0
2014-Oct-29 17:27N 59°49' E 022°57'0 0.0
2014-Oct-29 16:32N 59°49' E 022°57'0 0.0
2014-Oct-29 15:33N 59°49' E 022°57'0 0.0
2014-Oct-29 14:28N 59°49' E 022°57'0 0.0
2014-Oct-29 13:29N 59°49' E 022°57'0 0.0
2014-Oct-29 12:28N 59°49' E 022°57'0 0.0
2014-Oct-29 11:30N 59°49' E 022°57'0 0.0
2014-Oct-29 09:23N 59°49' E 022°57'0 0.0
2014-Oct-29 08:10N 59°49' E 022°57'0 0.0
2014-Oct-29 07:18N 59°49' E 022°57'0 0.0
2014-Oct-29 06:33N 59°49' E 022°57'0 0.0
2014-Oct-29 04:28N 59°49' E 022°57'6 7.1
2014-Oct-29 03:33N 59°44' E 023°04'2017.5
2014-Oct-29 02:26N 59°28' E 022°42'1618.0
2014-Oct-29 01:31N 59°18' E 022°16'3618.4
2014-Oct-28 23:33N 58°52' E 021°27'4618.4
2014-Oct-28 21:03N 58°15' E 020°33'2818.5
2014-Oct-28 19:31N 57°53' E 020°00'1818.6
2014-Oct-28 18:33N 57°39' E 019°40'2118.5
2014-Oct-28 17:26N 57°22' E 019°16'1918.8
2014-Oct-28 16:26N 57°07' E 018°55'1718.8
2014-Oct-28 15:33N 56°54' E 018°37'1918.6
2014-Oct-28 14:32N 56°41' E 018°11'1818.7
2014-Oct-28 13:33N 56°30' E 017°45'1918.7
2014-Oct-28 12:32N 56°18' E 017°19'1818.7
2014-Oct-28 11:33N 56°06' E 016°53'1918.7
2014-Oct-28 10:33N 55°55' E 016°27'1918.6
2014-Oct-28 09:33N 55°47' E 015°57'1918.6
2014-Oct-28 08:33N 55°39' E 015°27'1918.9
2014-Oct-28 07:33N 55°30' E 014°58'1918.7
2014-Oct-28 06:33N 55°18' E 014°32'1919.0
2014-Oct-28 05:33N 55°04' E 014°10'1918.6
2014-Oct-28 04:33N 54°57' E 013°40'1918.6
2014-Oct-28 03:33N 54°50' E 013°10'2118.4
2014-Oct-28 02:24N 54°41' E 012°37'1618.6
2014-Oct-28 01:33N 54°31' E 012°16'1818.3
2014-Oct-28 00:33N 54°19' E 011°53'2418.7
2014-Oct-27 23:18N 54°08' E 011°16'23 6.0
2014-Oct-27 19:33N 53°54' E 010°47'0 0.0
2014-Oct-27 18:33N 53°54' E 010°47'0 0.0
2014-Oct-27 17:24N 53°54' E 010°47'18 0.8
2014-Oct-26 17:27N 54°06' E 011°09'1718.9
2014-Oct-26 16:33N 54°16' E 011°33'1918.8
2014-Oct-26 15:33N 54°26' E 012°00'1817.3
2014-Oct-26 14:31N 54°39' E 012°22'4418.6
2014-Oct-26 12:07N 54°58' E 013°32'1118.8
2014-Oct-26 11:33N 55°02' E 013°49'1817.7
2014-Oct-26 10:33N 55°13' E 014°13'1717.1
2014-Oct-26 09:34N 55°25' E 014°33'2019.6
2014-Oct-26 08:34N 55°36' E 015°03'1717.3
2014-Oct-26 07:33N 55°44' E 015°29'1414.4
2014-Oct-26 06:33N 55°51' E 015°52'1818.6
2014-Oct-26 05:33N 55°60' E 016°21'31118.2
2014-Oct-25 12:31N 59°47' E 023°00'5 0.5
2014-Oct-25 02:31N 59°42' E 023°05'34918.4
2014-Oct-24 07:32N 55°36' E 015°21'1919.0
2014-Oct-24 06:34N 55°27' E 014°53'1918.7
2014-Oct-24 05:33N 55°15' E 014°28'1919.0
2014-Oct-24 04:33N 55°02' E 014°04'1919.2
2014-Oct-24 03:33N 54°55' E 013°32'4018.6
2014-Oct-24 01:23N 54°39' E 012°28'1518.6
2014-Oct-24 00:34N 54°27' E 012°12'1918.5
2014-Oct-23 23:33N 54°18' E 011°44'1919.0
2014-Oct-23 22:33N 54°08' E 011°16'3 0.1
2014-Oct-23 02:33N 54°08' E 011°11'1616.3
2014-Oct-23 01:33N 54°17' E 011°34'1716.8
2014-Oct-23 00:33N 54°25' E 011°59'6415.9
2014-Oct-22 20:32N 54°58' E 013°35'1616.7
2014-Oct-22 19:34N 55°04' E 014°01'1716.7
2014-Oct-22 18:33N 55°15' E 014°22'1717.0
2014-Oct-22 17:33N 55°28' E 014°42'1716.7
2014-Oct-22 16:33N 55°37' E 015°08'1816.8
2014-Oct-22 15:30N 55°45' E 015°35'1616.7
2014-Oct-22 14:33N 55°54' E 015°58'1716.8
2014-Oct-22 13:33N 56°03' E 016°24'30516.9
2014-Oct-21 19:33N 59°42' E 023°02'8 1.9
2014-Oct-21 15:27N 59°49' E 022°56'1415.8
2014-Oct-21 14:33N 59°39' E 023°15'2 0.4
2014-Oct-21 08:10N 59°37' E 023°19'1521.6
2014-Oct-21 07:28N 59°48' E 022°58'  
Track history (hours):
 
Tides and Currents Weather Stations Pressure Air Temp Water Temp Dewpoint Dewpoint Depression Visibility Wind Speed Wind Dir Waves Ship Positions

Pulpca

Last reported at 2014-Oct-31 03:21 UTC. Time now 2014-Oct-31 10:52 UTC.
Position N 54°07' E 011°10'.

Length 205 m; draft 7 m.

Type: Ship (hazmat cat A). MMSI: 245097000.

Date/timePositionNaut miles runAvg speedWind from/ knotsBaromVisibWave heightAir tempDewpointWater temp
2014-Oct-31 03:21N 54°07' E 011°10'1417.3
2014-Oct-31 02:33N 54°15' E 011°30'1817.4
2014-Oct-31 01:32N 54°24' E 011°56'1615.6
2014-Oct-31 00:32N 54°35' E 012°15'8316.6
2014-Oct-30 19:33N 55°15' E 014°21'1717.0
2014-Oct-30 18:33N 55°28' E 014°40'1717.1
2014-Oct-30 17:32N 55°37' E 015°07'2417.2
2014-Oct-30 16:07N 55°50' E 015°44'1317.1
2014-Oct-30 15:21N 55°56' E 016°04'31017.2
2014-Oct-29 21:18N 59°37' E 022°51'1013.9
2014-Oct-29 20:33N 59°46' E 023°01'4 1.8
2014-Oct-29 18:27N 59°49' E 022°57'0 0.0
2014-Oct-29 17:27N 59°49' E 022°57'0 0.0
2014-Oct-29 16:32N 59°49' E 022°57'0 0.0
2014-Oct-29 15:33N 59°49' E 022°57'0 0.0
2014-Oct-29 14:28N 59°49' E 022°57'0 0.0
2014-Oct-29 13:29N 59°49' E 022°57'0 0.0
2014-Oct-29 12:28N 59°49' E 022°57'0 0.0
2014-Oct-29 11:30N 59°49' E 022°57'0 0.0
2014-Oct-29 09:23N 59°49' E 022°57'0 0.0
2014-Oct-29 08:10N 59°49' E 022°57'0 0.0
2014-Oct-29 07:18N 59°49' E 022°57'0 0.0
2014-Oct-29 06:33N 59°49' E 022°57'0 0.0
2014-Oct-29 04:28N 59°49' E 022°57'6 7.1
2014-Oct-29 03:33N 59°44' E 023°04'2017.5
2014-Oct-29 02:26N 59°28' E 022°42'1618.0
2014-Oct-29 01:31N 59°18' E 022°16'3618.4
2014-Oct-28 23:33N 58°52' E 021°27'4618.4
2014-Oct-28 21:03N 58°15' E 020°33'2818.5
2014-Oct-28 19:31N 57°53' E 020°00'1818.6
2014-Oct-28 18:33N 57°39' E 019°40'2118.5
2014-Oct-28 17:26N 57°22' E 019°16'1918.8
2014-Oct-28 16:26N 57°07' E 018°55'1718.8
2014-Oct-28 15:33N 56°54' E 018°37'1918.6
2014-Oct-28 14:32N 56°41' E 018°11'1818.7
2014-Oct-28 13:33N 56°30' E 017°45'1918.7
2014-Oct-28 12:32N 56°18' E 017°19'1818.7
2014-Oct-28 11:33N 56°06' E 016°53'1918.7
2014-Oct-28 10:33N 55°55' E 016°27'1918.6
2014-Oct-28 09:33N 55°47' E 015°57'1918.6
2014-Oct-28 08:33N 55°39' E 015°27'1918.9
2014-Oct-28 07:33N 55°30' E 014°58'1918.7
2014-Oct-28 06:33N 55°18' E 014°32'1919.0
2014-Oct-28 05:33N 55°04' E 014°10'1918.6
2014-Oct-28 04:33N 54°57' E 013°40'1918.6
2014-Oct-28 03:33N 54°50' E 013°10'2118.4
2014-Oct-28 02:24N 54°41' E 012°37'1618.6
2014-Oct-28 01:33N 54°31' E 012°16'1818.3
2014-Oct-28 00:33N 54°19' E 011°53'2418.7
2014-Oct-27 23:18N 54°08' E 011°16'23 6.0
2014-Oct-27 19:33N 53°54' E 010°47'0 0.0
2014-Oct-27 18:33N 53°54' E 010°47'0 0.0
2014-Oct-27 17:24N 53°54' E 010°47'18 0.8
2014-Oct-26 17:27N 54°06' E 011°09'1718.9
2014-Oct-26 16:33N 54°16' E 011°33'1918.8
2014-Oct-26 15:33N 54°26' E 012°00'1817.3
2014-Oct-26 14:31N 54°39' E 012°22'4418.6
2014-Oct-26 12:07N 54°58' E 013°32'1118.8
2014-Oct-26 11:33N 55°02' E 013°49'1817.7
2014-Oct-26 10:33N 55°13' E 014°13'1717.1
2014-Oct-26 09:34N 55°25' E 014°33'2019.6
2014-Oct-26 08:34N 55°36' E 015°03'1717.3
2014-Oct-26 07:33N 55°44' E 015°29'1414.4
2014-Oct-26 06:33N 55°51' E 015°52'1818.6
2014-Oct-26 05:33N 55°60' E 016°21'31118.2
2014-Oct-25 12:31N 59°47' E 023°00'5 0.5
2014-Oct-25 02:31N 59°42' E 023°05'34918.4
2014-Oct-24 07:32N 55°36' E 015°21'1919.0
2014-Oct-24 06:34N 55°27' E 014°53'1918.7
2014-Oct-24 05:33N 55°15' E 014°28'1919.0
2014-Oct-24 04:33N 55°02' E 014°04'1919.2
2014-Oct-24 03:33N 54°55' E 013°32'4018.6
2014-Oct-24 01:23N 54°39' E 012°28'1518.6
2014-Oct-24 00:34N 54°27' E 012°12'1918.5
2014-Oct-23 23:33N 54°18' E 011°44'1919.0
2014-Oct-23 22:33N 54°08' E 011°16'3 0.1
2014-Oct-23 02:33N 54°08' E 011°11'1616.3
2014-Oct-23 01:33N 54°17' E 011°34'1716.8
2014-Oct-23 00:33N 54°25' E 011°59'6415.9
2014-Oct-22 20:32N 54°58' E 013°35'1616.7
2014-Oct-22 19:34N 55°04' E 014°01'1716.7
2014-Oct-22 18:33N 55°15' E 014°22'1717.0
2014-Oct-22 17:33N 55°28' E 014°42'1716.7
2014-Oct-22 16:33N 55°37' E 015°08'1816.8
2014-Oct-22 15:30N 55°45' E 015°35'1616.7
2014-Oct-22 14:33N 55°54' E 015°58'1716.8
2014-Oct-22 13:33N 56°03' E 016°24'30516.9
2014-Oct-21 19:33N 59°42' E 023°02'8 1.9
2014-Oct-21 15:27N 59°49' E 022°56'1415.8
2014-Oct-21 14:33N 59°39' E 023°15'2 0.4
2014-Oct-21 08:10N 59°37' E 023°19'1521.6
2014-Oct-21 07:28N 59°48' E 022°58'  

Dump ship's entire track history